HAU weather

Haugesund Airport
Karm√ły, Rogaland, Norway

Public forecast

Using degrees Celsius for public forecast. Weather courtesy of forecast.io.

Current aviation weather report (METAR) for Haugesund Airport

Retrieved 2019/10/13 23:20 UTC (14 minutes ago):

ENHD 132320Z AUTO 02004KT 9999 FEW044/// OVC055/// 09/06 Q1001

Closest aviation forecast (TAF) to Haugesund Airport

Closest forecast is Stavanger Airport Sola, 31.1 nm (57.6 km) SSE. Retrieved 2019/10/13 18:57 UTC (5 hours ago):

TAF ENZV 131700Z 1318/1418 10008KT 9999 FEW030 BKN070 BECMG 1321/1324 36010KT TEMPO 1321/1404 RA BECMG 1406/1409 VRB05KT BECMG 1415/1418 16010KT